Time;durP1;ratioP1;P1;durP2;ratioP2;P2;SDS_P1;SDS_P2;PMS_P1;PMS_P2;Temp;Humidity;BMP_temperature;BMP_pressure;BME280_temperature;BME280_humidity;BME280_pressure;Samples;Min_cycle;Max_cycle;Signal;HPM_P1;HPM_P2
2022/10/27 00:00:46;;;;;;;1.03;0.73;;;12.70;99.90;;;;;;5096499;28;20464;-88
2022/10/27 00:03:16;;;;;;;0.83;0.57;;;12.70;99.90;;;;;;5096674;28;20459;-88
2022/10/27 00:05:44;;;;;;;1.73;1.00;;;12.70;99.90;;;;;;5096576;28;20440;-88
2022/10/27 00:08:14;;;;;;;1.20;1.03;;;12.60;99.90;;;;;;5096654;28;20456;-88
2022/10/27 00:10:43;;;;;;;0.90;0.90;;;12.60;99.90;;;;;;5096649;28;20518;-88
2022/10/27 00:13:10;;;;;;;0.60;0.60;;;12.60;99.90;;;;;;5096168;28;20457;-87
2022/10/27 00:15:37;;;;;;;2.03;0.90;;;12.60;99.90;;;;;;5096272;28;20485;-87
2022/10/27 00:18:09;;;;;;;1.67;1.37;;;12.60;99.90;;;;;;5096322;28;20449;-88
2022/10/27 00:20:37;;;;;;;0.80;0.80;;;12.60;99.90;;;;;;5096449;28;20402;-88
2022/10/27 00:23:04;;;;;;;0.70;0.70;;;12.60;99.90;;;;;;5095965;28;20796;-88
2022/10/27 00:25:31;;;;;;;0.87;0.70;;;12.60;99.90;;;;;;5096144;28;20439;-88
2022/10/27 00:27:57;;;;;;;1.77;1.00;;;12.60;99.90;;;;;;5096173;28;20817;-88
2022/10/27 00:30:24;;;;;;;0.80;0.80;;;12.60;99.90;;;;;;5095917;28;20437;-88
2022/10/27 00:32:51;;;;;;;4.77;1.00;;;12.60;99.90;;;;;;5095896;28;20432;-87
2022/10/27 00:35:18;;;;;;;2.03;1.10;;;12.50;99.90;;;;;;5095887;28;20491;-87
2022/10/27 00:37:46;;;;;;;0.70;0.70;;;12.50;99.90;;;;;;5095639;28;20436;-87
2022/10/27 00:40:13;;;;;;;0.87;0.83;;;12.50;99.90;;;;;;5095942;28;20536;-88
2022/10/27 00:42:39;;;;;;;2.87;1.53;;;12.50;99.90;;;;;;5095824;28;20477;-88
2022/10/27 00:45:07;;;;;;;1.90;1.53;;;12.50;99.90;;;;;;5095880;28;20507;-88
2022/10/27 00:47:36;;;;;;;2.40;0.70;;;12.50;99.90;;;;;;5095623;28;20448;-87
2022/10/27 00:50:06;;;;;;;1.20;1.00;;;12.50;99.90;;;;;;5095685;28;20433;-88
2022/10/27 00:52:38;;;;;;;0.50;0.50;;;12.50;99.90;;;;;;5095556;28;20465;-88
2022/10/27 00:55:10;;;;;;;0.80;0.50;;;12.50;99.90;;;;;;5095666;28;20473;-87
2022/10/27 00:57:38;;;;;;;0.83;0.83;;;12.50;99.90;;;;;;5095531;28;20440;-88
2022/10/27 01:00:07;;;;;;;3.67;0.80;;;12.40;99.90;;;;;;5095647;28;20451;-88
2022/10/27 01:02:35;;;;;;;2.13;0.80;;;12.30;99.90;;;;;;5095360;28;20472;-88
2022/10/27 01:05:05;;;;;;;0.90;0.80;;;12.30;99.90;;;;;;5095194;28;20434;-88
2022/10/27 01:07:33;;;;;;;3.07;1.00;;;12.30;99.90;;;;;;5095133;28;20429;-88
2022/10/27 01:10:00;;;;;;;3.13;0.80;;;12.20;99.90;;;;;;5094758;28;20444;-88
2022/10/27 01:12:28;;;;;;;1.03;0.80;;;12.20;99.90;;;;;;5094830;28;20449;-87
2022/10/27 01:14:55;;;;;;;0.73;0.70;;;12.10;99.90;;;;;;5094981;28;20484;-88
2022/10/27 01:17:35;;;;;;;2.20;1.37;;;12.10;99.90;;;;;;5094719;28;20484;-87
2022/10/27 01:20:37;;;;;;;1.20;0.87;;;12.10;99.90;;;;;;5094793;28;20903;-87
2022/10/27 01:23:11;;;;;;;1.17;0.80;;;12.00;99.90;;;;;;5094650;28;20440;-88
2022/10/27 01:26:08;;;;;;;1.47;0.70;;;12.00;99.90;;;;;;5095006;28;20431;-87
2022/10/27 01:29:02;;;;;;;0.90;0.90;;;12.00;99.90;;;;;;5094855;28;20811;-87
2022/10/27 01:31:36;;;;;;;0.83;0.70;;;12.00;99.90;;;;;;5094445;28;20460;-87
2022/10/27 01:34:10;;;;;;;1.63;1.13;;;12.00;99.90;;;;;;5094263;28;20433;-87
2022/10/27 01:36:42;;;;;;;0.90;0.90;;;12.00;99.90;;;;;;5094855;28;20452;-87
2022/10/27 01:39:14;;;;;;;0.90;0.70;;;12.10;99.90;;;;;;5094725;28;20812;-88
2022/10/27 01:41:47;;;;;;;1.87;0.70;;;12.10;99.90;;;;;;5094528;28;20468;-87
2022/10/27 01:44:21;;;;;;;1.13;1.13;;;12.10;99.90;;;;;;5094561;28;20456;-87
2022/10/27 01:46:50;;;;;;;0.90;0.70;;;12.10;99.90;;;;;;5094494;28;20444;-87
2022/10/27 01:49:17;;;;;;;1.90;1.40;;;12.10;99.90;;;;;;5094500;28;20444;-87
2022/10/27 01:51:43;;;;;;;0.50;0.43;;;12.10;99.90;;;;;;5094417;28;20825;-87
2022/10/27 01:54:10;;;;;;;1.40;0.80;;;12.00;99.90;;;;;;5094220;28;20444;-87
2022/10/27 01:57:08;;;;;;;0.70;0.70;;;12.10;99.90;;;;;;5094358;28;20447;-87
2022/10/27 02:00:04;;;;;;;2.13;0.80;;;12.10;99.90;;;;;;5094470;28;20432;-87
2022/10/27 02:02:43;;;;;;;5.23;0.77;;;12.00;99.90;;;;;;5087322;28;20556;-87
2022/10/27 02:05:14;;;;;;;1.97;0.83;;;12.00;99.90;;;;;;5094074;28;20436;-87
2022/10/27 02:07:49;;;;;;;1.73;0.90;;;11.90;99.90;;;;;;5093851;28;20912;-87
2022/10/27 02:10:19;;;;;;;1.00;0.93;;;11.90;99.90;;;;;;5094042;28;20429;-87
2022/10/27 02:12:47;;;;;;;1.17;1.07;;;11.90;99.90;;;;;;5093744;28;20453;-87
2022/10/27 02:15:21;;;;;;;1.00;0.63;;;11.90;99.90;;;;;;5093647;28;20472;-87
2022/10/27 02:17:52;;;;;;;1.43;0.70;;;11.90;99.90;;;;;;5093638;28;20477;-87
2022/10/27 02:20:23;;;;;;;4.73;0.87;;;11.90;99.90;;;;;;5094014;28;20907;-87
2022/10/27 02:22:51;;;;;;;2.30;0.70;;;11.90;99.90;;;;;;5094069;28;20444;-87
2022/10/27 02:25:21;;;;;;;0.90;0.90;;;11.90;99.90;;;;;;5094018;28;20440;-87
2022/10/27 02:27:49;;;;;;;2.33;1.20;;;11.80;99.90;;;;;;5093755;28;20445;-87
2022/10/27 02:30:16;;;;;;;1.83;0.60;;;11.80;99.90;;;;;;5093791;28;20449;-87
2022/10/27 02:32:44;;;;;;;0.77;0.77;;;11.80;99.90;;;;;;5093596;28;20436;-87
2022/10/27 02:35:14;;;;;;;1.50;1.10;;;11.80;99.90;;;;;;5093549;28;20485;-87
2022/10/27 02:37:42;;;;;;;1.00;0.77;;;11.80;99.90;;;;;;5093479;28;20459;-87
2022/10/27 02:40:10;;;;;;;1.30;0.80;;;11.80;99.90;;;;;;5093908;28;20950;-87
2022/10/27 02:42:36;;;;;;;1.20;1.10;;;11.80;99.90;;;;;;5093642;28;20468;-87
2022/10/27 02:45:04;;;;;;;0.70;0.50;;;11.80;99.90;;;;;;5095532;28;20943;-87
2022/10/27 02:47:30;;;;;;;2.43;1.13;;;11.70;99.90;;;;;;5097760;28;20467;-87
2022/10/27 02:49:57;;;;;;;1.87;1.77;;;11.70;99.90;;;;;;5097680;28;20445;-86
2022/10/27 02:52:25;;;;;;;1.70;1.33;;;11.70;99.90;;;;;;5097676;28;20475;-86
2022/10/27 02:54:52;;;;;;;0.60;0.60;;;11.70;99.90;;;;;;5097566;28;20491;-86
2022/10/27 02:57:19;;;;;;;0.63;0.63;;;11.70;99.90;;;;;;5097656;28;20444;-86
2022/10/27 02:59:47;;;;;;;1.43;1.20;;;11.70;99.90;;;;;;5097489;28;20447;-87
2022/10/27 03:02:13;;;;;;;1.50;1.43;;;11.70;99.90;;;;;;5097382;28;20475;-87
2022/10/27 03:04:40;;;;;;;2.80;1.17;;;11.80;99.90;;;;;;5097397;28;20443;-86
2022/10/27 03:07:07;;;;;;;1.63;1.13;;;11.70;99.90;;;;;;5097267;28;20444;-86
2022/10/27 03:09:35;;;;;;;2.80;1.50;;;11.70;99.90;;;;;;5097314;28;20444;-87
2022/10/27 03:12:02;;;;;;;1.30;0.70;;;11.70;99.90;;;;;;5097023;28;20460;-86
2022/10/27 03:14:29;;;;;;;0.40;0.40;;;11.70;99.90;;;;;;5097271;28;20448;-87
2022/10/27 03:16:55;;;;;;;2.57;1.10;;;11.70;99.90;;;;;;5097050;28;20496;-86
2022/10/27 03:19:22;;;;;;;3.17;1.20;;;11.60;99.90;;;;;;5097074;28;20456;-87
2022/10/27 03:21:49;;;;;;;1.07;0.83;;;11.60;99.90;;;;;;5096671;28;20848;-86
2022/10/27 03:24:16;;;;;;;2.47;0.90;;;11.60;99.90;;;;;;5096957;28;20448;-86
2022/10/27 03:26:44;;;;;;;2.30;0.80;;;11.60;99.90;;;;;;5096976;28;20445;-86
2022/10/27 03:29:10;;;;;;;1.47;0.90;;;11.60;99.90;;;;;;5096488;28;20987;-86
2022/10/27 03:31:37;;;;;;;1.33;0.83;;;11.60;99.90;;;;;;5096465;28;20826;-86
2022/10/27 03:34:04;;;;;;;1.43;0.90;;;11.60;99.90;;;;;;5096678;28;20444;-86
2022/10/27 03:36:31;;;;;;;1.93;1.00;;;11.60;99.90;;;;;;5096693;28;20483;-86
2022/10/27 03:38:58;;;;;;;1.90;0.67;;;11.60;99.90;;;;;;5096348;28;20432;-86
2022/10/27 03:41:24;;;;;;;1.80;1.50;;;11.60;99.90;;;;;;5096302;28;20465;-86
2022/10/27 03:43:53;;;;;;;0.70;0.70;;;11.50;99.90;;;;;;5096319;28;20486;-86
2022/10/27 03:46:19;;;;;;;1.60;0.93;;;11.60;99.90;;;;;;5096333;28;20440;-86
2022/10/27 03:48:46;;;;;;;1.20;1.10;;;11.50;99.90;;;;;;5096224;28;20449;-86
2022/10/27 03:51:13;;;;;;;1.67;0.87;;;11.50;99.90;;;;;;5096167;28;20464;-86
2022/10/27 03:53:40;;;;;;;5.93;1.33;;;11.50;99.90;;;;;;5096128;28;20459;-86
2022/10/27 03:56:07;;;;;;;0.83;0.83;;;11.40;99.90;;;;;;5095621;28;20477;-86
2022/10/27 03:58:34;;;;;;;3.90;0.80;;;11.40;99.90;;;;;;5096289;28;20445;-86
2022/10/27 04:01:02;;;;;;;0.60;0.40;;;11.30;99.90;;;;;;5096230;28;20465;-86
2022/10/27 04:03:29;;;;;;;1.07;0.97;;;11.30;99.90;;;;;;5096194;28;20446;-86
2022/10/27 04:05:56;;;;;;;0.60;0.60;;;11.30;99.90;;;;;;5096177;28;20447;-86
2022/10/27 04:08:23;;;;;;;0.83;0.80;;;11.30;99.90;;;;;;5095779;28;20943;-86
2022/10/27 04:10:49;;;;;;;1.93;1.00;;;11.20;99.90;;;;;;5095694;28;20990;-86
2022/10/27 04:13:16;;;;;;;0.77;0.77;;;11.20;99.90;;;;;;5095937;28;20456;-85
2022/10/27 04:15:43;;;;;;;1.40;1.30;;;11.20;99.90;;;;;;5095439;28;20971;-86
2022/10/27 04:18:11;;;;;;;1.30;0.87;;;11.20;99.90;;;;;;5095904;28;20441;-86
2022/10/27 04:20:38;;;;;;;3.67;0.70;;;11.20;99.90;;;;;;5095760;28;20471;-86
2022/10/27 04:23:05;;;;;;;2.33;1.13;;;11.20;99.90;;;;;;5095407;28;20958;-86
2022/10/27 04:25:32;;;;;;;1.20;1.10;;;11.20;99.90;;;;;;5095630;28;20828;-86
2022/10/27 04:28:02;;;;;;;1.67;1.13;;;11.30;99.90;;;;;;5095664;28;20815;-86
2022/10/27 04:30:28;;;;;;;1.73;1.00;;;11.30;99.90;;;;;;5095554;28;20433;-87
2022/10/27 04:32:55;;;;;;;1.73;0.93;;;11.30;99.90;;;;;;5095534;28;20456;-86
2022/10/27 04:35:23;;;;;;;0.87;0.80;;;11.30;99.90;;;;;;5095331;28;20496;-86
2022/10/27 04:37:50;;;;;;;3.27;2.17;;;11.30;99.90;;;;;;5095403;28;20460;-86
2022/10/27 04:40:17;;;;;;;2.10;0.80;;;11.30;99.90;;;;;;5095480;28;20453;-86
2022/10/27 04:42:45;;;;;;;1.57;0.70;;;11.30;99.90;;;;;;5095358;28;20444;-86
2022/10/27 04:45:12;;;;;;;2.00;0.77;;;11.20;99.90;;;;;;5095068;28;20962;-85
2022/10/27 04:47:39;;;;;;;0.80;0.80;;;11.30;99.90;;;;;;5095617;28;20450;-86
2022/10/27 04:50:06;;;;;;;0.93;0.57;;;11.30;99.90;;;;;;5095682;28;20816;-85
2022/10/27 04:52:34;;;;;;;1.27;1.00;;;11.20;99.90;;;;;;5095077;28;20465;-86
2022/10/27 04:55:01;;;;;;;1.63;0.90;;;11.10;99.90;;;;;;5095141;28;20824;-86
2022/10/27 04:57:28;;;;;;;1.10;1.00;;;11.10;99.90;;;;;;5094963;28;20484;-86
2022/10/27 04:59:55;;;;;;;1.10;1.00;;;11.00;99.90;;;;;;5094956;28;20448;-86
2022/10/27 05:02:21;;;;;;;1.00;0.80;;;11.00;99.90;;;;;;5094624;28;20479;-86
2022/10/27 05:04:48;;;;;;;1.00;0.90;;;11.00;99.90;;;;;;5094871;28;20444;-86
2022/10/27 05:07:15;;;;;;;2.00;1.10;;;11.00;99.90;;;;;;5094542;28;20449;-85
2022/10/27 05:09:43;;;;;;;1.67;0.87;;;11.00;99.90;;;;;;5093849;28;20827;-86
2022/10/27 05:12:10;;;;;;;0.97;0.67;;;11.00;99.90;;;;;;5094660;28;20475;-86
2022/10/27 05:14:37;;;;;;;3.00;0.97;;;11.00;99.90;;;;;;5094669;28;20444;-86
2022/10/27 05:17:03;;;;;;;0.60;0.60;;;11.00;99.90;;;;;;5094187;28;20939;-85
2022/10/27 05:19:30;;;;;;;1.57;0.80;;;10.90;99.90;;;;;;5094336;28;20965;-85
2022/10/27 05:21:57;;;;;;;2.70;0.97;;;10.90;99.90;;;;;;5094513;28;20474;-86
2022/10/27 05:24:24;;;;;;;2.73;1.07;;;10.80;99.90;;;;;;5094557;28;20452;-83
2022/10/27 05:26:52;;;;;;;1.43;0.60;;;10.80;99.90;;;;;;5094328;28;20451;-86
2022/10/27 05:29:19;;;;;;;2.03;1.00;;;10.90;99.90;;;;;;5094397;28;20483;-85
2022/10/27 05:31:46;;;;;;;1.43;1.10;;;10.90;99.90;;;;;;5093958;28;20989;-85
2022/10/27 05:34:12;;;;;;;1.00;0.60;;;10.90;99.90;;;;;;5093952;28;20448;-86
2022/10/27 05:36:39;;;;;;;1.00;0.90;;;10.90;99.90;;;;;;5093858;28;20472;-86
2022/10/27 05:39:06;;;;;;;1.10;0.83;;;10.90;99.90;;;;;;5094161;28;20445;-85
2022/10/27 05:41:33;;;;;;;2.87;1.27;;;10.90;99.90;;;;;;5093782;28;20465;-85
2022/10/27 05:44:01;;;;;;;0.63;0.63;;;10.90;99.90;;;;;;5093864;28;20459;-85
2022/10/27 05:46:28;;;;;;;2.00;0.90;;;11.00;99.90;;;;;;5094105;28;20450;-85
2022/10/27 05:48:54;;;;;;;2.10;1.20;;;11.00;99.90;;;;;;5094160;28;20440;-85
2022/10/27 05:51:21;;;;;;;1.70;0.90;;;11.00;99.90;;;;;;5093977;28;20465;-85
2022/10/27 05:53:50;;;;;;;0.73;0.60;;;11.00;99.90;;;;;;5094033;28;20455;-85
2022/10/27 05:56:17;;;;;;;2.10;1.27;;;10.90;99.90;;;;;;5093786;28;20526;-85
2022/10/27 05:58:44;;;;;;;2.10;0.80;;;10.90;99.90;;;;;;5093990;28;20444;-85
2022/10/27 06:01:12;;;;;;;1.23;0.90;;;10.90;99.90;;;;;;5093776;28;20468;-85
2022/10/27 06:03:39;;;;;;;2.00;1.17;;;10.90;99.90;;;;;;5093639;28;20437;-85
2022/10/27 06:06:06;;;;;;;1.03;0.70;;;10.90;99.90;;;;;;5093798;28;20445;-85
2022/10/27 06:08:33;;;;;;;1.20;1.20;;;11.00;99.90;;;;;;5093786;28;20451;-85
2022/10/27 06:11:01;;;;;;;1.30;1.20;;;11.00;99.90;;;;;;5093292;28;20824;-85
2022/10/27 06:13:28;;;;;;;1.93;0.80;;;11.00;99.90;;;;;;5093966;28;20815;-89
2022/10/27 06:15:56;;;;;;;3.13;1.50;;;11.10;99.90;;;;;;5094222;28;20472;-89
2022/10/27 06:18:24;;;;;;;1.43;0.80;;;11.20;99.90;;;;;;5094455;28;20806;-89
2022/10/27 06:20:50;;;;;;;0.83;0.83;;;11.20;99.90;;;;;;5093752;28;21009;-89
2022/10/27 06:23:17;;;;;;;1.47;0.60;;;11.20;99.90;;;;;;5094536;28;20449;-89
2022/10/27 06:25:44;;;;;;;1.27;0.90;;;11.20;99.90;;;;;;5094407;28;20441;-89
2022/10/27 06:28:11;;;;;;;1.07;0.97;;;11.30;99.90;;;;;;5094486;28;20445;-89
2022/10/27 06:30:38;;;;;;;0.97;0.70;;;11.30;99.90;;;;;;5094188;28;20436;-89
2022/10/27 06:33:04;;;;;;;3.63;1.23;;;11.40;99.90;;;;;;5094137;28;20502;-89
2022/10/27 06:35:33;;;;;;;1.40;1.30;;;11.50;99.90;;;;;;5094462;28;20448;-89
2022/10/27 06:37:59;;;;;;;1.23;1.00;;;11.50;99.90;;;;;;5094469;28;20483;-89
2022/10/27 06:40:26;;;;;;;4.40;1.83;;;11.50;99.90;;;;;;5094455;28;20445;-89
2022/10/27 06:42:53;;;;;;;1.40;0.87;;;11.50;99.90;;;;;;5094033;28;20452;-89
2022/10/27 06:45:20;;;;;;;1.10;0.90;;;11.50;99.90;;;;;;5094541;28;20437;-90
2022/10/27 06:47:56;;;;;;;1.47;0.70;;;11.60;99.90;;;;;;5094469;28;20439;-89
2022/10/27 06:50:23;;;;;;;1.30;1.20;;;11.60;99.90;;;;;;5094207;28;20409;-89
2022/10/27 06:52:51;;;;;;;4.37;1.17;;;11.50;99.90;;;;;;5094029;28;20444;-89
2022/10/27 06:55:18;;;;;;;0.77;0.50;;;11.50;99.90;;;;;;5094254;28;20783;-89
2022/10/27 06:57:45;;;;;;;0.73;0.70;;;11.50;99.90;;;;;;5094125;28;20476;-89
2022/10/27 07:00:13;;;;;;;2.60;1.40;;;11.50;99.90;;;;;;5093898;28;20449;-90
2022/10/27 07:02:40;;;;;;;1.70;1.10;;;11.50;99.90;;;;;;5094046;28;20468;-89
2022/10/27 07:05:08;;;;;;;0.60;0.60;;;11.60;99.90;;;;;;5093786;28;20970;-89
2022/10/27 07:07:36;;;;;;;2.00;1.17;;;11.70;99.90;;;;;;5094116;28;20472;-90
2022/10/27 07:10:05;;;;;;;3.97;1.20;;;11.70;99.90;;;;;;5093869;28;20453;-90
2022/10/27 07:12:32;;;;;;;1.10;0.73;;;11.80;99.90;;;;;;5093592;28;20476;-90
2022/10/27 07:14:59;;;;;;;4.20;1.70;;;11.80;99.90;;;;;;5093935;28;20453;-89
2022/10/27 07:17:26;;;;;;;1.10;0.80;;;11.90;99.90;;;;;;5093485;28;20485;-90
2022/10/27 07:19:52;;;;;;;1.43;1.00;;;12.00;99.90;;;;;;5094033;28;20447;-89
2022/10/27 07:22:19;;;;;;;5.20;1.20;;;12.00;99.90;;;;;;5093923;28;20470;-90
2022/10/27 07:24:46;;;;;;;1.50;0.97;;;12.10;99.90;;;;;;5094029;28;20452;-90
2022/10/27 07:27:14;;;;;;;1.00;0.70;;;12.20;99.90;;;;;;5093933;28;20457;-90
2022/10/27 07:29:41;;;;;;;0.90;0.90;;;12.20;99.90;;;;;;5093638;28;20449;-89
2022/10/27 07:32:08;;;;;;;4.10;1.43;;;12.30;99.90;;;;;;5095512;28;20445;-90
2022/10/27 07:34:34;;;;;;;1.53;0.90;;;12.40;99.90;;;;;;5097489;28;20444;-89
2022/10/27 07:37:01;;;;;;;1.07;0.77;;;12.40;99.90;;;;;;5097357;28;20487;-89
2022/10/27 07:39:28;;;;;;;0.83;0.70;;;12.50;99.90;;;;;;5097500;28;20455;-89
2022/10/27 07:41:55;;;;;;;1.90;1.27;;;12.60;99.90;;;;;;5097390;28;20472;-89
2022/10/27 07:44:23;;;;;;;1.53;0.80;;;12.60;99.90;;;;;;5097332;28;20450;-90
2022/10/27 07:46:49;;;;;;;0.80;0.60;;;12.70;99.90;;;;;;5097309;28;20440;-89
2022/10/27 07:49:16;;;;;;;2.93;0.60;;;12.70;99.90;;;;;;5097246;28;20792;-89
2022/10/27 07:51:43;;;;;;;3.70;1.17;;;12.80;99.90;;;;;;5097081;28;20837;-90
2022/10/27 07:54:10;;;;;;;2.37;0.70;;;12.80;99.90;;;;;;5097071;28;20463;-90
2022/10/27 07:56:37;;;;;;;1.50;0.80;;;12.90;99.90;;;;;;5097066;28;20477;-89
2022/10/27 07:59:04;;;;;;;0.93;0.80;;;12.90;99.90;;;;;;5096872;28;20454;-89
2022/10/27 08:01:32;;;;;;;3.30;1.83;;;13.00;99.90;;;;;;5096828;28;20448;-89
2022/10/27 08:03:59;;;;;;;0.70;0.70;;;13.00;99.90;;;;;;5097033;28;20548;-89
2022/10/27 08:06:26;;;;;;;0.97;0.90;;;13.10;99.90;;;;;;5096716;28;20455;-89
2022/10/27 08:08:53;;;;;;;2.20;1.47;;;13.20;99.90;;;;;;5097122;28;20445;-89
2022/10/27 08:11:21;;;;;;;1.07;1.03;;;13.30;99.90;;;;;;5096877;28;20468;-90
2022/10/27 08:13:48;;;;;;;1.37;0.80;;;13.30;99.90;;;;;;5096945;28;20448;-89
2022/10/27 08:16:15;;;;;;;0.70;0.70;;;13.40;99.90;;;;;;5096644;28;20479;-89
2022/10/27 08:18:44;;;;;;;0.83;0.70;;;13.50;99.90;;;;;;5096797;28;20433;-89
2022/10/27 08:21:11;;;;;;;0.60;0.60;;;13.50;99.90;;;;;;5096696;28;20465;-89
2022/10/27 08:23:39;;;;;;;3.97;1.03;;;13.70;99.90;;;;;;5096805;28;20455;-89
2022/10/27 08:26:06;;;;;;;0.90;0.90;;;14.00;99.90;;;;;;5096595;28;20452;-89
2022/10/27 08:28:32;;;;;;;0.80;0.80;;;14.20;99.90;;;;;;5096463;28;20441;-89
2022/10/27 08:30:59;;;;;;;1.50;1.37;;;14.50;99.90;;;;;;5096393;28;20465;-90
2022/10/27 08:33:26;;;;;;;1.07;0.90;;;14.80;99.90;;;;;;5096233;28;20448;-89
2022/10/27 08:35:54;;;;;;;2.23;0.83;;;15.00;99.90;;;;;;5096359;28;20451;-89
2022/10/27 08:38:21;;;;;;;4.10;1.00;;;15.40;99.90;;;;;;5095734;28;20484;-89
2022/10/27 08:41:03;;;;;;;3.37;1.73;;;15.80;99.90;;;;;;5095738;28;20480;-89
2022/10/27 08:44:06;;;;;;;1.30;1.03;;;16.50;99.90;;;;;;5095965;28;20436;-89
2022/10/27 08:46:39;;;;;;;9.17;1.17;;;17.60;99.90;;;;;;5096041;28;20451;-89
2022/10/27 08:49:19;;;;;;;1.10;0.70;;;18.70;99.90;;;;;;5096045;28;20414;-89
2022/10/27 08:51:48;;;;;;;0.73;0.73;;;19.80;99.90;;;;;;5096212;28;20970;-89
2022/10/27 08:54:15;;;;;;;10.63;1.07;;;20.90;99.90;;;;;;5095920;28;20570;-89
2022/10/27 08:56:43;;;;;;;1.30;1.20;;;21.90;99.90;;;;;;5095755;28;20448;-89
2022/10/27 08:59:15;;;;;;;1.63;1.10;;;22.90;99.90;;;;;;5095731;28;20455;-89
2022/10/27 09:01:48;;;;;;;0.73;0.70;;;24.30;99.90;;;;;;5095786;28;20463;-89
2022/10/27 09:04:26;;;;;;;3.45;0.70;;;25.70;99.90;;;;;;5095566;28;20664;-89
2022/10/27 09:07:10;;;;;;;0.80;0.70;;;27.10;99.90;;;;;;5095719;28;20193;-89
2022/10/27 09:09:46;;;;;;;1.58;0.90;;;28.20;99.90;;;;;;5095430;28;20174;-90
2022/10/27 09:12:20;;;;;;;0.70;0.70;;;29.00;99.90;;;;;;5095274;28;20726;-90
2022/10/27 09:15:06;;;;;;;1.60;1.10;;;29.60;96.90;;;;;;5095258;28;20185;-89
2022/10/27 09:17:39;;;;;;;1.75;0.85;;;29.80;96.20;;;;;;5094885;28;20696;-89
2022/10/27 09:20:14;;;;;;;1.95;0.80;;;29.60;93.90;;;;;;5095468;28;20193;-89
2022/10/27 09:22:42;;;;;;;0.70;0.70;;;29.50;92.70;;;;;;5095242;28;20217;-90
2022/10/27 09:25:17;;;;;;;1.98;1.52;;;29.80;92.70;;;;;;5095151;28;20579;-90
2022/10/27 09:27:45;;;;;;;2.35;0.80;;;30.20;91.50;;;;;;5095280;28;20185;-90
2022/10/27 09:30:14;;;;;;;1.00;0.90;;;30.50;90.80;;;;;;5095236;28;20210;-90
2022/10/27 09:32:46;;;;;;;1.95;0.80;;;30.40;89.60;;;;;;5095112;28;20222;-89
2022/10/27 09:35:14;;;;;;;1.52;1.38;;;30.20;87.80;;;;;;5095102;28;20191;-89
2022/10/27 09:37:43;;;;;;;1.23;0.70;;;29.70;89.20;;;;;;5094799;28;20218;-89
2022/10/27 09:40:12;;;;;;;0.85;0.70;;;29.10;88.60;;;;;;5094962;28;20202;-89
2022/10/27 09:42:39;;;;;;;1.20;0.90;;;28.80;88.60;;;;;;5094588;28;20218;-90
2022/10/27 09:45:14;;;;;;;3.80;1.33;;;28.30;90.70;;;;;;5094999;28;20209;-89
2022/10/27 09:47:43;;;;;;;2.78;0.90;;;27.80;90.60;;;;;;5094917;28;20185;-90
2022/10/27 09:50:18;;;;;;;0.70;0.70;;;27.80;90.30;;;;;;5094719;28;20202;-89
2022/10/27 09:52:47;;;;;;;2.20;0.70;;;27.90;90.10;;;;;;5094953;28;20190;-90
2022/10/27 09:55:14;;;;;;;0.70;0.70;;;28.00;88.60;;;;;;5094394;28;20290;-90
2022/10/27 09:57:42;;;;;;;1.50;0.98;;;29.00;86.40;;;;;;5094821;28;20229;-90
2022/10/27 10:00:24;;;;;;;1.40;0.73;;;29.60;83.20;;;;;;5100417;28;20202;-90
2022/10/27 10:03:00;;;;;;;1.75;0.75;;;30.30;82.50;;;;;;5100093;28;20648;-90
2022/10/27 10:05:30;;;;;;;0.68;0.60;;;30.60;80.00;;;;;;5095131;28;20190;-91
2022/10/27 10:08:14;;;;;;;1.10;0.77;;;30.60;79.70;;;;;;5096974;28;20198;-90
2022/10/27 10:10:54;;;;;;;4.35;1.00;;;30.00;80.40;;;;;;5096529;28;20241;-91
2022/10/27 10:13:22;;;;;;;0.70;0.70;;;29.00;82.10;;;;;;5095454;28;20189;-91
2022/10/27 10:16:06;;;;;;;2.85;0.70;;;28.20;86.00;;;;;;5094891;28;20198;-90
2022/10/27 10:18:34;;;;;;;0.73;0.73;;;26.90;88.10;;;;;;5094682;28;20206;-89
2022/10/27 10:21:03;;;;;;;0.80;0.80;;;26.10;88.30;;;;;;5094691;28;20571;-90
2022/10/27 10:23:33;;;;;;;1.67;1.00;;;25.70;89.80;;;;;;5094802;28;20202;-90
2022/10/27 10:26:02;;;;;;;0.75;0.70;;;25.30;90.50;;;;;;5095158;28;20190;-90
2022/10/27 10:28:35;;;;;;;1.80;1.02;;;24.80;91.30;;;;;;5094599;28;20198;-90
2022/10/27 10:31:05;;;;;;;5.00;0.70;;;24.50;92.80;;;;;;5094270;28;20222;-90
2022/10/27 10:33:35;;;;;;;1.10;0.68;;;24.10;93.30;;;;;;5094388;28;20205;-90
2022/10/27 10:36:17;;;;;;;2.47;0.65;;;23.60;93.60;;;;;;5094410;28;20209;-90
2022/10/27 10:38:50;;;;;;;3.33;0.75;;;23.20;94.70;;;;;;5095006;28;20275;-89
2022/10/27 10:41:19;;;;;;;3.85;1.00;;;22.90;94.70;;;;;;5094362;28;20770;-90
2022/10/27 10:43:46;;;;;;;1.50;0.63;;;22.60;95.70;;;;;;5094733;28;20206;-90
2022/10/27 10:46:21;;;;;;;0.80;0.80;;;22.50;96.20;;;;;;5094770;28;20198;-90
2022/10/27 10:48:52;;;;;;;0.93;0.75;;;22.50;97.30;;;;;;5094747;28;20186;-90
2022/10/27 10:51:26;;;;;;;0.60;0.60;;;22.40;98.50;;;;;;5096003;28;20224;-90
2022/10/27 10:53:59;;;;;;;0.80;0.70;;;22.30;97.80;;;;;;5094830;28;20226;-90
2022/10/27 10:56:29;;;;;;;1.43;0.80;;;22.10;97.60;;;;;;5094531;28;20190;-90
2022/10/27 10:59:04;;;;;;;0.97;0.60;;;22.10;98.20;;;;;;5094627;28;20229;-89
2022/10/27 11:01:43;;;;;;;3.17;0.70;;;21.90;98.00;;;;;;5094878;28;20458;-90
2022/10/27 11:04:12;;;;;;;1.93;0.60;;;21.80;98.30;;;;;;5100013;28;20446;-90
2022/10/27 11:06:50;;;;;;;3.47;0.60;;;21.80;99.50;;;;;;5100326;28;20448;-90
2022/10/27 11:09:18;;;;;;;2.10;0.60;;;21.80;99.30;;;;;;5103863;28;20421;-89
2022/10/27 11:11:47;;;;;;;0.97;0.83;;;21.70;99.00;;;;;;5103969;28;20479;-90
2022/10/27 11:14:17;;;;;;;0.87;0.70;;;21.70;99.00;;;;;;5099529;28;20970;-86
2022/10/27 11:16:52;;;;;;;0.73;0.70;;;21.70;98.20;;;;;;5101042;28;20533;-91
2022/10/27 11:19:21;;;;;;;0.83;0.70;;;21.60;98.10;;;;;;5102185;28;20463;-91
2022/10/27 11:21:57;;;;;;;0.70;0.60;;;21.60;97.60;;;;;;5101748;28;20467;-85
2022/10/27 11:24:30;;;;;;;1.00;0.50;;;21.50;97.30;;;;;;5101297;28;20440;-90
2022/10/27 11:27:02;;;;;;;2.97;0.73;;;21.50;97.40;;;;;;5101965;28;20886;-90
2022/10/27 11:29:48;;;;;;;0.70;0.70;;;21.40;97.70;;;;;;5101255;28;20503;-90
2022/10/27 11:32:20;;;;;;;1.17;0.53;;;21.40;97.50;;;;;;5101365;28;20474;-90
2022/10/27 11:34:57;;;;;;;0.53;0.47;;;21.50;97.30;;;;;;5101810;28;20432;-90
2022/10/27 11:37:32;;;;;;;1.67;0.57;;;21.40;97.90;;;;;;5103224;28;20446;-90
2022/10/27 11:40:05;;;;;;;0.97;0.60;;;21.40;98.20;;;;;;5102938;28;20431;-90
2022/10/27 11:42:40;;;;;;;2.80;0.57;;;21.40;98.00;;;;;;5103592;28;20464;-90
2022/10/27 11:45:13;;;;;;;1.03;0.50;;;21.30;97.90;;;;;;5103166;28;20423;-90
2022/10/27 11:47:43;;;;;;;0.93;0.50;;;21.30;98.70;;;;;;5101566;28;20435;-90
2022/10/27 11:50:17;;;;;;;1.10;0.53;;;21.20;99.10;;;;;;5101912;28;20400;-90
2022/10/27 11:52:46;;;;;;;1.10;0.80;;;21.20;97.80;;;;;;5102733;28;20471;-90
2022/10/27 11:55:17;;;;;;;2.53;0.80;;;21.10;99.40;;;;;;5104372;28;20454;-90
2022/10/27 11:57:51;;;;;;;2.50;0.77;;;21.00;99.80;;;;;;5103458;28;20460;-90
2022/10/27 12:00:21;;;;;;;0.70;0.50;;;20.90;99.40;;;;;;5102644;28;20440;-90
2022/10/27 12:03:15;;;;;;;0.80;0.60;;;20.80;99.90;;;;;;5100380;28;20415;-90
2022/10/27 12:05:47;;;;;;;0.63;0.40;;;20.70;99.90;;;;;;5101167;28;20413;-90
2022/10/27 12:08:24;;;;;;;2.40;0.50;;;20.70;99.20;;;;;;5099894;28;20428;-90
2022/10/27 12:11:03;;;;;;;0.60;0.50;;;20.60;99.50;;;;;;5099057;28;20497;-90
2022/10/27 12:13:37;;;;;;;0.93;0.50;;;20.60;99.90;;;;;;5097696;28;20438;-89
2022/10/27 12:16:11;;;;;;;0.60;0.60;;;20.50;99.90;;;;;;5097600;28;20494;-89
2022/10/27 12:18:44;;;;;;;0.57;0.53;;;20.50;99.50;;;;;;5098236;28;20585;-90
2022/10/27 12:21:17;;;;;;;1.03;0.60;;;20.60;98.90;;;;;;5098958;28;20989;-89
2022/10/27 12:23:50;;;;;;;0.70;0.70;;;20.60;98.50;;;;;;5098284;28;20896;-90
2022/10/27 12:26:25;;;;;;;0.50;0.50;;;20.70;98.30;;;;;;5098405;28;20450;-90
2022/10/27 12:28:52;;;;;;;2.77;1.10;;;20.60;99.00;;;;;;5098757;28;20423;-90
2022/10/27 12:31:23;;;;;;;2.07;0.70;;;20.50;98.70;;;;;;5097026;28;20483;-89
2022/10/27 12:33:55;;;;;;;0.50;0.50;;;20.50;98.40;;;;;;5097096;28;20429;-90
2022/10/27 12:36:30;;;;;;;0.70;0.60;;;20.50;98.60;;;;;;5096582;28;20440;-90
2022/10/27 12:39:08;;;;;;;0.97;0.70;;;20.40;99.50;;;;;;5096455;28;20468;-90
2022/10/27 12:41:43;;;;;;;0.80;0.60;;;20.30;99.90;;;;;;5096297;28;20472;-90
2022/10/27 12:44:20;;;;;;;0.80;0.80;;;20.30;99.90;;;;;;5096146;28;20925;-90
2022/10/27 12:47:01;;;;;;;0.50;0.50;;;20.20;99.90;;;;;;5096490;28;20941;-90
2022/10/27 12:49:39;;;;;;;1.00;0.50;;;20.10;99.90;;;;;;5096386;28;20876;-90
2022/10/27 12:52:12;;;;;;;3.23;0.57;;;20.10;99.90;;;;;;5096228;28;20832;-90
2022/10/27 12:55:03;;;;;;;1.47;0.50;;;20.10;99.90;;;;;;5097221;28;20436;-90
2022/10/27 12:57:45;;;;;;;1.43;0.50;;;20.00;99.90;;;;;;5098266;28;20437;-90
2022/10/27 13:00:14;;;;;;;2.03;0.70;;;20.10;99.90;;;;;;5096614;28;20431;-90
2022/10/27 13:02:47;;;;;;;0.70;0.70;;;20.00;99.90;;;;;;5097529;28;20830;-90